x

Sentry Shoal (46131) Wave Buoy

5:00 - Sat 30th Aug 2014 All times are PDT. -7 hours from GMT.

  • Sig Wave height 0.7ft
  • Peak Period 3s
  • Wind
    9mph, 11mph gusts
  • Sea Temp 63°f
  • Luft Temp 60°f
  • Sea Pressure 1012.2mb
  • Sentry Shoal
  • Sentry Shoal

More Historic Weather Station data

Upgrade to MSW Pro to gain access to the past 30 days of data for over 8000 Wavebouys and Weather Stations around the globe.

Join Pro

Comparision Forecast

View Surf forecast
   
Sa 08/30 5:00 0.7ft 3s 9 11 mph 1012.2mb 63f 60f
4:00 0.7ft 3s 7 9 mph 1012.4mb 62f 62f
3:00 1ft 3s 4
mph
1011.6mb 63f 63f
2:00 1ft 3s 7 9 mph 1011.7mb 62f 61f
1:00 1ft 3s 4
mph
1011.8mb 60f 61f
12:00 0.7ft 3s  -  2 mph 1011.8mb 60f 62f
11:00 0.7ft 3s 2 4 mph 1011.8mb 61f 61f
10:00 0.7ft 3s 2
mph
1011.5mb 59f 59f
9:00 0.7ft 3s 4
mph
1011.4mb 59f 58f
8:00 1ft 4s 7 9 mph 1011.3mb 58f 57f
7:00 1ft 4s 4 7 mph 1011.1mb 58f 58f
6:00 1ft 4s 2 4 mph 1011mb 59f 58f
5:00 1ft 4s 2
mph
1011.2mb 59f 58f
4:00 1ft 4s 4
mph
1011.5mb 59f 58f
3:00 1.3ft 4s 4
mph
1011.5mb 59f 58f
2:00 1.6ft 4s 7 9 mph 1011.7mb 59f 61f
1:00 1.6ft 4s 16 18 mph 1011.7mb 59f 62f
12:00 1.6ft 4s 9 11 mph 1011.9mb 59f 61f
Fr 08/29 11:00 2ft 4s 13 16 mph 1011.9mb 59f 62f
10:00 1.6ft 4s 16 18 mph 1011.9mb 59f 62f
9:00 1ft 3s 11 13 mph 1012.5mb 59f 62f
8:00 1ft 3s 11 13 mph 1012.5mb 60f 62f
7:00 1ft 3s 11 13 mph 1012.9mb 61f 63f
6:00 0.7ft 2s 11 13 mph 1013.1mb 62f 63f
5:00 0.3ft 2s 9 11 mph 1013.4mb 62f 63f
4:00 0.3ft 4s 2
mph
1013.8mb 63f 62f
3:00  -  2s  -  mph 1013.9mb 62f 62f
2:00 0.3ft 2s 2 4 mph 1014.2mb 62f 59f
1:00  -  2s 2
mph
1014.1mb 61f 58f
12:00 0.3ft 2s 7 9 mph 1014mb 61f 58f
11:00 0.3ft 2s 7
mph
1013.7mb 61f 57f
10:00 0.3ft 3s 4
mph
1013.6mb 60f 57f
9:00 0.7ft 3s 9
mph
1013.5mb 60f 58f
8:00 0.3ft 2s 11 13 mph 1013.5mb 60f 57f
7:00 0.7ft 3s 11 13 mph 1013.6mb 59f 59f
6:00 0.7ft 2s 9 11 mph 1013.3mb 59f 60f
5:00 0.7ft 2s 13 16 mph 1012.9mb 59f 61f
4:00 0.7ft 2s 11 13 mph 1013.5mb 59f 61f
3:00 0.7ft 4s 9 11 mph 1013.5mb 60f 61f
2:00 1ft 4s 9 11 mph 1013.5mb 60f 62f
1:00 1.3ft 4s 13 16 mph 1013.7mb 60f 62f
12:00 1.3ft 4s 4
mph
1013.5mb 61f 63f
Do 08/28 11:00 1.6ft 4s 7 9 mph 1014.1mb 60f 64f
10:00 2ft 4s 9
mph
1014.7mb 59f 64f
9:00 2ft 4s 13 16 mph 1014.7mb 59f 64f
8:00 2.5ft 4s 13 16 mph 1014.6mb 58f 64f
7:00 2ft 4s 13 16 mph 1014.9mb 59f 64f
6:00 0.3ft 2s 13
mph
1015.1mb 61f 64f
5:00 0.3ft 3s 7 9 mph 1015.5mb 63f 66f
4:00 0.3ft 3s 4 7 mph 1016.3mb 62f 65f
3:00  -  3s 4
mph
1016.6mb 64f 65f
2:00 0.3ft 2s 7
mph
1017mb 62f 64f
1:00 0.3ft 2s 7
mph
1017.2mb 62f 66f
12:00 0.3ft 2s  -  2 mph 1017.6mb 61f 64f
11:00 0.3ft 2s 4 7 mph 1017.7mb 59f 62f
10:00 0.7ft 2s 7
mph
1017.6mb 59f 61f
9:00 1ft 2s 11 13 mph 1017.1mb 58f 60f
8:00 1.3ft 3s 13 16 mph 1016.8mb 58f 60f
7:00 1ft 2s 11 13 mph 1016.6mb 58f 60f
6:00 1ft 3s 13 16 mph 1015.9mb 59f 60f
5:00 0.7ft 2s 16 18 mph 1015.9mb 60f 61f
4:00 0.7ft 2s 13 16 mph 1015.9mb 60f 62f
3:00 0.3ft 2s 13 16 mph 1015.7mb 61f 62f
2:00 0.3ft 2s 9 11 mph 1015.7mb 61f 63f
1:00 0.7ft 6s 11 13 mph 1015.5mb 61f 64f
12:00 0.7ft 2s 13 16 mph 1015.1mb 61f 65f
Mi 08/27 11:00 0.7ft 2s 11 13 mph 1015mb 62f 66f
10:00 0.7ft 2s 16 18 mph 1014.8mb 61f 67f
8:00 0.3ft 2s 13 16 mph 1014.1mb 62f 68f
7:00 0.3ft 2s 13 16 mph 1013.9mb 64f 71f
6:00 0.3ft 2s 7 9 mph 1014.5mb 67f 73f
5:00 0.3ft 4s 4
mph
1014.7mb 69f 71f
4:00 0.3ft 3s 2
mph
1015.1mb 70f 71f
3:00 0.3ft 3s 2
mph
1015.5mb 67f 71f
2:00 0.3ft 3s  -  mph 1016mb 67f 72f
1:00 0.3ft 2s 2
mph
1016.4mb 64f 67f
12:00 0.3ft 3s  -  2 mph 1016.9mb 63f 68f
11:00 0.3ft 3s 2
mph
1017.2mb 62f 65f
10:00 0.3ft 2s 9
mph
1017.1mb 62f 64f
9:00 0.3ft 2s 4
mph
1017.2mb 61f 62f
8:00 0.7ft 2s 9
mph
1017.1mb 60f 62f
7:00 0.3ft 2s 13
mph
1016.8mb 60f 62f
6:00 0.3ft 2s 11 13 mph 1016.3mb 60f 62f
5:00 0.3ft 2s 7 9 mph 1016.2mb 60f 62f
4:00 0.7ft 2s 11 13 mph 1016.1mb 61f 63f
3:00 0.3ft 2s 9 11 mph 1015.9mb 61f 63f
2:00 0.7ft 3s 11 13 mph 1015.9mb 61f 64f